sensor_id;sensor_type;location;lat;lon;timestamp;P1;durP1;ratioP1;P2;durP2;ratioP2
8913;SDS011;4492;48.736;9.092;2023-02-11T00:01:19;35.33;;;15.10;;
8913;SDS011;4492;48.736;9.092;2023-02-11T00:03:53;35.27;;;14.83;;
8913;SDS011;4492;48.736;9.092;2023-02-11T00:06:19;33.97;;;13.57;;
8913;SDS011;4492;48.736;9.092;2023-02-11T00:08:44;30.00;;;13.37;;
8913;SDS011;4492;48.736;9.092;2023-02-11T00:11:14;32.53;;;14.70;;
8913;SDS011;4492;48.736;9.092;2023-02-11T00:13:41;35.43;;;14.37;;
8913;SDS011;4492;48.736;9.092;2023-02-11T00:16:08;34.00;;;14.63;;
8913;SDS011;4492;48.736;9.092;2023-02-11T00:18:36;35.37;;;15.10;;
8913;SDS011;4492;48.736;9.092;2023-02-11T00:23:34;40.80;;;15.97;;
8913;SDS011;4492;48.736;9.092;2023-02-11T00:26:00;38.67;;;16.80;;
8913;SDS011;4492;48.736;9.092;2023-02-11T00:28:25;38.63;;;15.57;;
8913;SDS011;4492;48.736;9.092;2023-02-11T00:30:55;35.27;;;15.07;;
8913;SDS011;4492;48.736;9.092;2023-02-11T00:33:21;34.20;;;15.10;;
8913;SDS011;4492;48.736;9.092;2023-02-11T00:35:47;37.20;;;15.67;;
8913;SDS011;4492;48.736;9.092;2023-02-11T00:38:13;33.97;;;14.40;;
8913;SDS011;4492;48.736;9.092;2023-02-11T00:40:38;30.93;;;13.33;;
8913;SDS011;4492;48.736;9.092;2023-02-11T00:43:03;32.23;;;14.10;;
8913;SDS011;4492;48.736;9.092;2023-02-11T00:45:29;29.10;;;13.37;;
8913;SDS011;4492;48.736;9.092;2023-02-11T00:47:55;31.17;;;13.93;;
8913;SDS011;4492;48.736;9.092;2023-02-11T00:50:21;33.70;;;14.10;;
8913;SDS011;4492;48.736;9.092;2023-02-11T00:52:46;30.33;;;13.63;;
8913;SDS011;4492;48.736;9.092;2023-02-11T00:55:12;31.83;;;14.10;;
8913;SDS011;4492;48.736;9.092;2023-02-11T00:57:38;30.10;;;13.03;;
8913;SDS011;4492;48.736;9.092;2023-02-11T01:00:05;31.50;;;14.00;;
8913;SDS011;4492;48.736;9.092;2023-02-11T01:02:31;37.33;;;15.40;;
8913;SDS011;4492;48.736;9.092;2023-02-11T01:04:57;39.90;;;16.03;;
8913;SDS011;4492;48.736;9.092;2023-02-11T01:07:24;36.67;;;15.77;;
8913;SDS011;4492;48.736;9.092;2023-02-11T01:09:50;34.20;;;14.67;;
8913;SDS011;4492;48.736;9.092;2023-02-11T01:12:15;35.00;;;14.90;;
8913;SDS011;4492;48.736;9.092;2023-02-11T01:14:41;34.20;;;14.90;;
8913;SDS011;4492;48.736;9.092;2023-02-11T01:17:07;33.70;;;13.53;;
8913;SDS011;4492;48.736;9.092;2023-02-11T01:19:32;34.93;;;14.27;;
8913;SDS011;4492;48.736;9.092;2023-02-11T01:21:58;30.73;;;13.23;;
8913;SDS011;4492;48.736;9.092;2023-02-11T01:24:24;28.17;;;12.90;;
8913;SDS011;4492;48.736;9.092;2023-02-11T01:26:49;30.37;;;13.07;;
8913;SDS011;4492;48.736;9.092;2023-02-11T01:29:15;29.37;;;13.00;;
8913;SDS011;4492;48.736;9.092;2023-02-11T01:31:40;30.57;;;12.97;;
8913;SDS011;4492;48.736;9.092;2023-02-11T01:34:06;30.57;;;13.07;;
8913;SDS011;4492;48.736;9.092;2023-02-11T01:36:31;34.03;;;14.70;;
8913;SDS011;4492;48.736;9.092;2023-02-11T01:38:57;32.57;;;13.63;;
8913;SDS011;4492;48.736;9.092;2023-02-11T01:41:22;25.40;;;11.67;;
8913;SDS011;4492;48.736;9.092;2023-02-11T01:43:48;32.80;;;14.07;;
8913;SDS011;4492;48.736;9.092;2023-02-11T01:46:27;30.57;;;14.27;;
8913;SDS011;4492;48.736;9.092;2023-02-11T01:49:08;33.23;;;13.57;;
8913;SDS011;4492;48.736;9.092;2023-02-11T01:54:04;33.40;;;14.33;;
8913;SDS011;4492;48.736;9.092;2023-02-11T01:56:51;31.63;;;13.07;;
8913;SDS011;4492;48.736;9.092;2023-02-11T01:59:46;34.33;;;14.00;;
8913;SDS011;4492;48.736;9.092;2023-02-11T02:02:17;31.80;;;13.03;;
8913;SDS011;4492;48.736;9.092;2023-02-11T02:04:55;30.57;;;13.43;;
8913;SDS011;4492;48.736;9.092;2023-02-11T02:07:41;27.83;;;12.93;;
8913;SDS011;4492;48.736;9.092;2023-02-11T02:10:28;27.37;;;12.60;;
8913;SDS011;4492;48.736;9.092;2023-02-11T02:12:55;29.83;;;13.47;;
8913;SDS011;4492;48.736;9.092;2023-02-11T02:15:26;28.80;;;13.60;;
8913;SDS011;4492;48.736;9.092;2023-02-11T02:18:00;29.83;;;13.43;;
8913;SDS011;4492;48.736;9.092;2023-02-11T02:29:22;30.53;;;13.17;;
8913;SDS011;4492;48.736;9.092;2023-02-11T02:40:29;34.97;;;15.57;;
8913;SDS011;4492;48.736;9.092;2023-02-11T02:42:58;32.60;;;14.67;;
8913;SDS011;4492;48.736;9.092;2023-02-11T02:45:26;35.47;;;14.73;;
8913;SDS011;4492;48.736;9.092;2023-02-11T02:47:51;32.53;;;14.27;;
8913;SDS011;4492;48.736;9.092;2023-02-11T02:50:18;30.47;;;14.47;;
8913;SDS011;4492;48.736;9.092;2023-02-11T03:01:25;32.23;;;13.57;;
8913;SDS011;4492;48.736;9.092;2023-02-11T03:04:12;31.77;;;13.27;;
8913;SDS011;4492;48.736;9.092;2023-02-11T03:07:11;29.37;;;12.97;;
8913;SDS011;4492;48.736;9.092;2023-02-11T03:09:56;29.57;;;13.00;;
8913;SDS011;4492;48.736;9.092;2023-02-11T03:12:29;30.23;;;12.90;;
8913;SDS011;4492;48.736;9.092;2023-02-11T03:14:57;31.13;;;12.70;;
8913;SDS011;4492;48.736;9.092;2023-02-11T03:17:26;28.23;;;12.90;;
8913;SDS011;4492;48.736;9.092;2023-02-11T03:19:53;28.93;;;12.53;;
8913;SDS011;4492;48.736;9.092;2023-02-11T03:22:24;28.10;;;12.30;;
8913;SDS011;4492;48.736;9.092;2023-02-11T03:24:56;25.90;;;11.57;;
8913;SDS011;4492;48.736;9.092;2023-02-11T03:27:57;27.07;;;12.13;;
8913;SDS011;4492;48.736;9.092;2023-02-11T03:30:20;30.70;;;12.97;;
8913;SDS011;4492;48.736;9.092;2023-02-11T03:32:51;28.50;;;13.27;;
8913;SDS011;4492;48.736;9.092;2023-02-11T03:35:27;29.00;;;13.23;;
8913;SDS011;4492;48.736;9.092;2023-02-11T03:38:02;24.70;;;11.47;;
8913;SDS011;4492;48.736;9.092;2023-02-11T03:40:37;30.93;;;13.03;;
8913;SDS011;4492;48.736;9.092;2023-02-11T03:43:12;29.87;;;13.43;;
8913;SDS011;4492;48.736;9.092;2023-02-11T03:45:41;27.77;;;12.50;;
8913;SDS011;4492;48.736;9.092;2023-02-11T03:48:16;25.67;;;12.27;;
8913;SDS011;4492;48.736;9.092;2023-02-11T03:50:46;26.63;;;12.33;;
8913;SDS011;4492;48.736;9.092;2023-02-11T03:53:15;25.53;;;12.00;;
8913;SDS011;4492;48.736;9.092;2023-02-11T03:55:41;26.90;;;11.90;;
8913;SDS011;4492;48.736;9.092;2023-02-11T03:58:08;23.30;;;11.40;;
8913;SDS011;4492;48.736;9.092;2023-02-11T04:00:35;25.20;;;12.33;;
8913;SDS011;4492;48.736;9.092;2023-02-11T04:03:03;25.13;;;12.17;;
8913;SDS011;4492;48.736;9.092;2023-02-11T04:05:29;24.13;;;11.93;;
8913;SDS011;4492;48.736;9.092;2023-02-11T04:07:55;25.90;;;12.53;;
8913;SDS011;4492;48.736;9.092;2023-02-11T04:10:21;26.40;;;12.60;;
8913;SDS011;4492;48.736;9.092;2023-02-11T04:12:46;26.33;;;12.47;;
8913;SDS011;4492;48.736;9.092;2023-02-11T04:15:12;24.03;;;11.80;;
8913;SDS011;4492;48.736;9.092;2023-02-11T04:17:38;26.47;;;12.33;;
8913;SDS011;4492;48.736;9.092;2023-02-11T04:20:03;29.13;;;12.30;;
8913;SDS011;4492;48.736;9.092;2023-02-11T04:22:29;27.33;;;12.10;;
8913;SDS011;4492;48.736;9.092;2023-02-11T04:24:55;24.90;;;11.17;;
8913;SDS011;4492;48.736;9.092;2023-02-11T04:27:20;20.43;;;10.87;;
8913;SDS011;4492;48.736;9.092;2023-02-11T04:29:46;26.63;;;11.53;;
8913;SDS011;4492;48.736;9.092;2023-02-11T04:32:12;21.40;;;11.17;;
8913;SDS011;4492;48.736;9.092;2023-02-11T04:34:37;22.80;;;11.43;;
8913;SDS011;4492;48.736;9.092;2023-02-11T04:37:03;27.63;;;12.60;;
8913;SDS011;4492;48.736;9.092;2023-02-11T04:39:29;21.93;;;11.00;;
8913;SDS011;4492;48.736;9.092;2023-02-11T04:41:54;23.83;;;12.03;;
8913;SDS011;4492;48.736;9.092;2023-02-11T04:44:20;20.80;;;10.63;;
8913;SDS011;4492;48.736;9.092;2023-02-11T04:46:45;23.53;;;11.13;;
8913;SDS011;4492;48.736;9.092;2023-02-11T04:49:12;20.30;;;9.73;;
8913;SDS011;4492;48.736;9.092;2023-02-11T04:51:39;18.00;;;9.57;;
8913;SDS011;4492;48.736;9.092;2023-02-11T04:54:04;18.20;;;9.90;;
8913;SDS011;4492;48.736;9.092;2023-02-11T04:56:30;27.57;;;13.10;;
8913;SDS011;4492;48.736;9.092;2023-02-11T04:58:56;27.67;;;12.83;;
8913;SDS011;4492;48.736;9.092;2023-02-11T05:01:21;24.97;;;12.20;;
8913;SDS011;4492;48.736;9.092;2023-02-11T05:03:47;25.93;;;12.07;;
8913;SDS011;4492;48.736;9.092;2023-02-11T05:06:13;26.37;;;12.87;;
8913;SDS011;4492;48.736;9.092;2023-02-11T05:08:39;22.33;;;10.90;;
8913;SDS011;4492;48.736;9.092;2023-02-11T05:11:04;27.00;;;11.53;;
8913;SDS011;4492;48.736;9.092;2023-02-11T05:13:31;21.70;;;10.73;;
8913;SDS011;4492;48.736;9.092;2023-02-11T05:15:57;17.37;;;9.63;;
8913;SDS011;4492;48.736;9.092;2023-02-11T05:18:22;19.80;;;9.97;;
8913;SDS011;4492;48.736;9.092;2023-02-11T05:20:48;24.23;;;10.53;;
8913;SDS011;4492;48.736;9.092;2023-02-11T05:23:13;18.20;;;9.00;;
8913;SDS011;4492;48.736;9.092;2023-02-11T05:25:39;27.27;;;11.00;;
8913;SDS011;4492;48.736;9.092;2023-02-11T05:28:04;18.67;;;10.40;;
8913;SDS011;4492;48.736;9.092;2023-02-11T05:30:30;19.97;;;9.93;;
8913;SDS011;4492;48.736;9.092;2023-02-11T05:32:56;19.43;;;9.87;;
8913;SDS011;4492;48.736;9.092;2023-02-11T05:35:22;20.03;;;10.53;;
8913;SDS011;4492;48.736;9.092;2023-02-11T05:37:47;21.83;;;10.90;;
8913;SDS011;4492;48.736;9.092;2023-02-11T05:40:13;20.70;;;10.80;;
8913;SDS011;4492;48.736;9.092;2023-02-11T05:42:39;21.37;;;10.20;;
8913;SDS011;4492;48.736;9.092;2023-02-11T05:45:04;20.57;;;10.40;;
8913;SDS011;4492;48.736;9.092;2023-02-11T05:47:30;21.57;;;10.50;;
8913;SDS011;4492;48.736;9.092;2023-02-11T05:49:56;19.07;;;10.07;;
8913;SDS011;4492;48.736;9.092;2023-02-11T05:52:21;18.77;;;9.63;;
8913;SDS011;4492;48.736;9.092;2023-02-11T05:54:47;20.60;;;10.30;;
8913;SDS011;4492;48.736;9.092;2023-02-11T05:57:13;20.13;;;10.30;;
8913;SDS011;4492;48.736;9.092;2023-02-11T05:59:40;18.57;;;10.03;;
8913;SDS011;4492;48.736;9.092;2023-02-11T06:02:06;20.07;;;10.40;;
8913;SDS011;4492;48.736;9.092;2023-02-11T06:04:34;21.67;;;10.13;;
8913;SDS011;4492;48.736;9.092;2023-02-11T06:07:01;20.50;;;10.13;;
8913;SDS011;4492;48.736;9.092;2023-02-11T06:09:27;18.80;;;10.37;;
8913;SDS011;4492;48.736;9.092;2023-02-11T06:11:52;18.53;;;9.40;;
8913;SDS011;4492;48.736;9.092;2023-02-11T06:14:18;15.20;;;9.20;;
8913;SDS011;4492;48.736;9.092;2023-02-11T06:16:43;15.87;;;9.07;;
8913;SDS011;4492;48.736;9.092;2023-02-11T06:19:09;21.80;;;11.33;;
8913;SDS011;4492;48.736;9.092;2023-02-11T06:21:35;21.43;;;10.97;;
8913;SDS011;4492;48.736;9.092;2023-02-11T06:24:01;20.17;;;10.43;;
8913;SDS011;4492;48.736;9.092;2023-02-11T06:26:26;22.87;;;10.77;;
8913;SDS011;4492;48.736;9.092;2023-02-11T06:28:52;24.80;;;11.27;;
8913;SDS011;4492;48.736;9.092;2023-02-11T06:31:17;18.67;;;9.77;;
8913;SDS011;4492;48.736;9.092;2023-02-11T06:33:43;21.57;;;10.00;;
8913;SDS011;4492;48.736;9.092;2023-02-11T06:36:13;17.70;;;9.23;;
8913;SDS011;4492;48.736;9.092;2023-02-11T06:38:40;16.00;;;8.90;;
8913;SDS011;4492;48.736;9.092;2023-02-11T06:41:08;15.60;;;9.13;;
8913;SDS011;4492;48.736;9.092;2023-02-11T06:43:37;17.40;;;8.97;;
8913;SDS011;4492;48.736;9.092;2023-02-11T06:46:03;14.87;;;8.43;;
8913;SDS011;4492;48.736;9.092;2023-02-11T06:48:29;15.53;;;8.23;;
8913;SDS011;4492;48.736;9.092;2023-02-11T06:50:55;15.77;;;8.20;;
8913;SDS011;4492;48.736;9.092;2023-02-11T06:53:20;16.07;;;8.10;;
8913;SDS011;4492;48.736;9.092;2023-02-11T06:55:46;16.50;;;8.80;;
8913;SDS011;4492;48.736;9.092;2023-02-11T06:58:12;16.93;;;8.73;;
8913;SDS011;4492;48.736;9.092;2023-02-11T07:00:37;16.20;;;9.20;;
8913;SDS011;4492;48.736;9.092;2023-02-11T07:03:03;21.73;;;10.53;;
8913;SDS011;4492;48.736;9.092;2023-02-11T07:05:28;18.57;;;9.60;;
8913;SDS011;4492;48.736;9.092;2023-02-11T07:07:54;20.30;;;9.90;;
8913;SDS011;4492;48.736;9.092;2023-02-11T07:10:19;17.83;;;10.03;;
8913;SDS011;4492;48.736;9.092;2023-02-11T07:12:45;17.57;;;9.53;;
8913;SDS011;4492;48.736;9.092;2023-02-11T07:15:10;17.27;;;9.23;;
8913;SDS011;4492;48.736;9.092;2023-02-11T07:17:36;18.37;;;9.07;;
8913;SDS011;4492;48.736;9.092;2023-02-11T07:20:02;15.93;;;8.73;;
8913;SDS011;4492;48.736;9.092;2023-02-11T07:22:28;16.83;;;9.50;;
8913;SDS011;4492;48.736;9.092;2023-02-11T07:24:54;17.03;;;9.30;;
8913;SDS011;4492;48.736;9.092;2023-02-11T07:27:19;16.03;;;8.97;;
8913;SDS011;4492;48.736;9.092;2023-02-11T07:29:45;18.80;;;9.03;;
8913;SDS011;4492;48.736;9.092;2023-02-11T07:32:11;17.70;;;9.73;;
8913;SDS011;4492;48.736;9.092;2023-02-11T07:34:39;15.43;;;9.13;;
8913;SDS011;4492;48.736;9.092;2023-02-11T07:37:05;17.60;;;9.50;;
8913;SDS011;4492;48.736;9.092;2023-02-11T07:39:30;18.57;;;9.83;;
8913;SDS011;4492;48.736;9.092;2023-02-11T07:41:56;18.20;;;9.03;;
8913;SDS011;4492;48.736;9.092;2023-02-11T07:44:22;16.30;;;9.57;;
8913;SDS011;4492;48.736;9.092;2023-02-11T07:46:47;16.10;;;9.23;;
8913;SDS011;4492;48.736;9.092;2023-02-11T07:49:13;14.90;;;8.33;;
8913;SDS011;4492;48.736;9.092;2023-02-11T07:51:39;17.70;;;9.20;;
8913;SDS011;4492;48.736;9.092;2023-02-11T07:54:05;14.27;;;8.97;;
8913;SDS011;4492;48.736;9.092;2023-02-11T07:56:31;14.33;;;9.17;;
8913;SDS011;4492;48.736;9.092;2023-02-11T07:59:01;15.90;;;9.77;;
8913;SDS011;4492;48.736;9.092;2023-02-11T08:01:28;17.67;;;8.73;;
8913;SDS011;4492;48.736;9.092;2023-02-11T08:03:54;13.37;;;8.13;;
8913;SDS011;4492;48.736;9.092;2023-02-11T08:06:22;15.03;;;7.37;;
8913;SDS011;4492;48.736;9.092;2023-02-11T08:08:49;12.27;;;7.63;;
8913;SDS011;4492;48.736;9.092;2023-02-11T08:11:16;13.17;;;7.00;;
8913;SDS011;4492;48.736;9.092;2023-02-11T08:13:43;13.00;;;7.53;;
8913;SDS011;4492;48.736;9.092;2023-02-11T08:16:16;14.00;;;7.50;;
8913;SDS011;4492;48.736;9.092;2023-02-11T08:18:46;13.70;;;7.67;;
8913;SDS011;4492;48.736;9.092;2023-02-11T08:21:12;13.77;;;7.53;;
8913;SDS011;4492;48.736;9.092;2023-02-11T08:23:38;11.50;;;6.53;;
8913;SDS011;4492;48.736;9.092;2023-02-11T08:26:05;13.27;;;7.03;;
8913;SDS011;4492;48.736;9.092;2023-02-11T08:28:34;14.70;;;7.47;;
8913;SDS011;4492;48.736;9.092;2023-02-11T08:31:05;14.47;;;7.33;;
8913;SDS011;4492;48.736;9.092;2023-02-11T08:33:32;11.10;;;7.30;;
8913;SDS011;4492;48.736;9.092;2023-02-11T08:35:58;12.47;;;7.03;;
8913;SDS011;4492;48.736;9.092;2023-02-11T08:38:24;13.27;;;7.10;;
8913;SDS011;4492;48.736;9.092;2023-02-11T08:40:50;10.37;;;6.53;;
8913;SDS011;4492;48.736;9.092;2023-02-11T08:43:15;12.30;;;7.63;;
8913;SDS011;4492;48.736;9.092;2023-02-11T08:45:41;13.63;;;7.67;;
8913;SDS011;4492;48.736;9.092;2023-02-11T08:48:06;12.33;;;7.17;;
8913;SDS011;4492;48.736;9.092;2023-02-11T08:50:32;11.40;;;7.63;;
8913;SDS011;4492;48.736;9.092;2023-02-11T08:52:58;13.73;;;7.90;;
8913;SDS011;4492;48.736;9.092;2023-02-11T08:55:23;14.97;;;7.43;;
8913;SDS011;4492;48.736;9.092;2023-02-11T08:57:49;12.47;;;6.60;;
8913;SDS011;4492;48.736;9.092;2023-02-11T09:00:15;12.53;;;8.03;;
8913;SDS011;4492;48.736;9.092;2023-02-11T09:02:41;13.53;;;7.07;;
8913;SDS011;4492;48.736;9.092;2023-02-11T09:05:06;11.83;;;6.83;;
8913;SDS011;4492;48.736;9.092;2023-02-11T09:07:32;16.07;;;7.33;;
8913;SDS011;4492;48.736;9.092;2023-02-11T09:09:58;11.43;;;6.60;;
8913;SDS011;4492;48.736;9.092;2023-02-11T09:12:23;12.83;;;7.10;;
8913;SDS011;4492;48.736;9.092;2023-02-11T09:14:49;13.37;;;7.20;;
8913;SDS011;4492;48.736;9.092;2023-02-11T09:17:14;12.87;;;7.23;;
8913;SDS011;4492;48.736;9.092;2023-02-11T09:19:40;13.80;;;6.33;;
8913;SDS011;4492;48.736;9.092;2023-02-11T09:22:05;10.90;;;6.50;;
8913;SDS011;4492;48.736;9.092;2023-02-11T09:24:31;9.60;;;5.93;;
8913;SDS011;4492;48.736;9.092;2023-02-11T09:26:56;8.43;;;5.83;;
8913;SDS011;4492;48.736;9.092;2023-02-11T09:29:22;12.47;;;6.60;;
8913;SDS011;4492;48.736;9.092;2023-02-11T09:31:47;9.97;;;6.33;;
8913;SDS011;4492;48.736;9.092;2023-02-11T09:34:13;12.23;;;6.80;;
8913;SDS011;4492;48.736;9.092;2023-02-11T09:36:40;13.43;;;6.97;;
8913;SDS011;4492;48.736;9.092;2023-02-11T09:39:07;9.83;;;6.33;;
8913;SDS011;4492;48.736;9.092;2023-02-11T09:44:28;12.60;;;7.20;;
8913;SDS011;4492;48.736;9.092;2023-02-11T09:46:58;11.93;;;7.07;;
8913;SDS011;4492;48.736;9.092;2023-02-11T09:49:30;11.77;;;7.27;;
8913;SDS011;4492;48.736;9.092;2023-02-11T09:54:56;12.60;;;6.87;;
8913;SDS011;4492;48.736;9.092;2023-02-11T09:57:25;12.20;;;7.07;;
8913;SDS011;4492;48.736;9.092;2023-02-11T10:00:06;11.03;;;6.97;;
8913;SDS011;4492;48.736;9.092;2023-02-11T10:03:00;11.13;;;7.30;;
8913;SDS011;4492;48.736;9.092;2023-02-11T10:05:47;11.63;;;7.20;;
8913;SDS011;4492;48.736;9.092;2023-02-11T10:11:05;11.83;;;6.87;;
8913;SDS011;4492;48.736;9.092;2023-02-11T10:13:46;11.83;;;6.40;;
8913;SDS011;4492;48.736;9.092;2023-02-11T10:16:33;10.83;;;6.80;;
8913;SDS011;4492;48.736;9.092;2023-02-11T10:19:18;10.77;;;6.47;;
8913;SDS011;4492;48.736;9.092;2023-02-11T10:22:17;10.80;;;6.63;;
8913;SDS011;4492;48.736;9.092;2023-02-11T10:24:53;13.30;;;7.50;;
8913;SDS011;4492;48.736;9.092;2023-02-11T10:27:23;11.00;;;6.70;;
8913;SDS011;4492;48.736;9.092;2023-02-11T10:29:56;12.17;;;7.13;;
8913;SDS011;4492;48.736;9.092;2023-02-11T10:32:29;12.27;;;6.80;;
8913;SDS011;4492;48.736;9.092;2023-02-11T10:35:15;13.03;;;7.50;;
8913;SDS011;4492;48.736;9.092;2023-02-11T10:37:45;11.07;;;6.97;;
8913;SDS011;4492;48.736;9.092;2023-02-11T10:40:14;12.17;;;6.33;;
8913;SDS011;4492;48.736;9.092;2023-02-11T10:42:47;10.13;;;6.33;;
8913;SDS011;4492;48.736;9.092;2023-02-11T10:45:16;8.33;;;5.17;;
8913;SDS011;4492;48.736;9.092;2023-02-11T10:47:47;10.43;;;5.73;;
8913;SDS011;4492;48.736;9.092;2023-02-11T10:50:20;7.10;;;5.57;;
8913;SDS011;4492;48.736;9.092;2023-02-11T10:53:15;10.07;;;5.63;;
8913;SDS011;4492;48.736;9.092;2023-02-11T10:55:48;11.13;;;6.10;;
8913;SDS011;4492;48.736;9.092;2023-02-11T10:58:27;8.70;;;5.67;;
8913;SDS011;4492;48.736;9.092;2023-02-11T11:00:58;10.87;;;6.23;;
8913;SDS011;4492;48.736;9.092;2023-02-11T11:03:25;10.63;;;5.97;;
8913;SDS011;4492;48.736;9.092;2023-02-11T11:05:54;8.47;;;5.70;;
8913;SDS011;4492;48.736;9.092;2023-02-11T11:08:23;8.80;;;5.43;;
8913;SDS011;4492;48.736;9.092;2023-02-11T11:13:52;9.77;;;5.80;;
8913;SDS011;4492;48.736;9.092;2023-02-11T11:16:34;9.47;;;5.73;;
8913;SDS011;4492;48.736;9.092;2023-02-11T11:21:34;9.00;;;5.40;;
8913;SDS011;4492;48.736;9.092;2023-02-11T11:24:04;9.83;;;5.60;;
8913;SDS011;4492;48.736;9.092;2023-02-11T11:26:43;9.80;;;5.37;;
8913;SDS011;4492;48.736;9.092;2023-02-11T11:29:18;8.33;;;4.80;;
8913;SDS011;4492;48.736;9.092;2023-02-11T11:31:49;10.63;;;6.23;;
8913;SDS011;4492;48.736;9.092;2023-02-11T11:34:19;9.63;;;6.37;;
8913;SDS011;4492;48.736;9.092;2023-02-11T11:36:47;8.13;;;5.50;;
8913;SDS011;4492;48.736;9.092;2023-02-11T11:39:47;9.70;;;5.93;;
8913;SDS011;4492;48.736;9.092;2023-02-11T11:42:25;7.87;;;5.33;;
8913;SDS011;4492;48.736;9.092;2023-02-11T11:45:00;9.27;;;6.13;;
8913;SDS011;4492;48.736;9.092;2023-02-11T11:50:15;9.33;;;6.10;;
8913;SDS011;4492;48.736;9.092;2023-02-11T11:53:04;8.47;;;5.70;;
8913;SDS011;4492;48.736;9.092;2023-02-11T11:55:44;9.00;;;5.03;;
8913;SDS011;4492;48.736;9.092;2023-02-11T11:58:29;8.67;;;4.50;;
8913;SDS011;4492;48.736;9.092;2023-02-11T12:06:32;4.93;;;3.90;;
8913;SDS011;4492;48.736;9.092;2023-02-11T12:11:57;7.27;;;4.77;;
8913;SDS011;4492;48.736;9.092;2023-02-11T12:20:18;6.37;;;4.43;;
8913;SDS011;4492;48.736;9.092;2023-02-11T12:31:25;4.67;;;3.90;;
8913;SDS011;4492;48.736;9.092;2023-02-11T12:34:17;4.63;;;3.30;;
8913;SDS011;4492;48.736;9.092;2023-02-11T12:39:52;4.47;;;3.70;;
8913;SDS011;4492;48.736;9.092;2023-02-11T12:42:49;6.77;;;3.80;;
8913;SDS011;4492;48.736;9.092;2023-02-11T12:48:52;6.30;;;3.50;;
8913;SDS011;4492;48.736;9.092;2023-02-11T12:51:36;5.10;;;3.20;;
8913;SDS011;4492;48.736;9.092;2023-02-11T12:54:18;4.93;;;3.70;;
8913;SDS011;4492;48.736;9.092;2023-02-11T12:56:53;6.27;;;4.67;;
8913;SDS011;4492;48.736;9.092;2023-02-11T12:59:33;6.13;;;5.13;;
8913;SDS011;4492;48.736;9.092;2023-02-11T13:07:49;9.17;;;6.80;;
8913;SDS011;4492;48.736;9.092;2023-02-11T13:12:57;10.70;;;5.20;;
8913;SDS011;4492;48.736;9.092;2023-02-11T13:15:41;9.37;;;5.03;;
8913;SDS011;4492;48.736;9.092;2023-02-11T13:18:30;6.43;;;4.67;;
8913;SDS011;4492;48.736;9.092;2023-02-11T13:23:43;9.87;;;5.20;;
8913;SDS011;4492;48.736;9.092;2023-02-11T13:26:32;7.67;;;5.50;;
8913;SDS011;4492;48.736;9.092;2023-02-11T13:29:25;6.87;;;5.47;;
8913;SDS011;4492;48.736;9.092;2023-02-11T13:31:54;8.20;;;4.97;;
8913;SDS011;4492;48.736;9.092;2023-02-11T13:37:23;8.47;;;5.10;;
8913;SDS011;4492;48.736;9.092;2023-02-11T13:42:48;7.67;;;5.20;;
8913;SDS011;4492;48.736;9.092;2023-02-11T13:47:59;9.20;;;5.77;;
8913;SDS011;4492;48.736;9.092;2023-02-11T13:50:28;8.90;;;5.47;;
8913;SDS011;4492;48.736;9.092;2023-02-11T13:53:02;10.80;;;5.57;;
8913;SDS011;4492;48.736;9.092;2023-02-11T13:55:30;10.13;;;6.90;;
8913;SDS011;4492;48.736;9.092;2023-02-11T14:06:09;12.63;;;6.87;;
8913;SDS011;4492;48.736;9.092;2023-02-11T14:19:30;14.47;;;8.87;;
8913;SDS011;4492;48.736;9.092;2023-02-11T14:22:10;16.10;;;8.80;;
8913;SDS011;4492;48.736;9.092;2023-02-11T14:24:52;13.10;;;7.67;;
8913;SDS011;4492;48.736;9.092;2023-02-11T14:36:17;14.97;;;8.60;;
8913;SDS011;4492;48.736;9.092;2023-02-11T14:41:44;18.77;;;10.07;;
8913;SDS011;4492;48.736;9.092;2023-02-11T14:44:22;20.07;;;10.90;;
8913;SDS011;4492;48.736;9.092;2023-02-11T14:46:50;18.00;;;10.30;;
8913;SDS011;4492;48.736;9.092;2023-02-11T14:49:50;17.60;;;10.77;;
8913;SDS011;4492;48.736;9.092;2023-02-11T14:54:55;19.40;;;10.97;;
8913;SDS011;4492;48.736;9.092;2023-02-11T14:57:30;17.10;;;9.70;;
8913;SDS011;4492;48.736;9.092;2023-02-11T14:59:57;23.27;;;10.77;;
8913;SDS011;4492;48.736;9.092;2023-02-11T15:02:31;17.70;;;9.73;;
8913;SDS011;4492;48.736;9.092;2023-02-11T15:07:54;16.17;;;9.27;;
8913;SDS011;4492;48.736;9.092;2023-02-11T15:10:35;14.90;;;9.20;;
8913;SDS011;4492;48.736;9.092;2023-02-11T15:13:06;16.90;;;8.50;;
8913;SDS011;4492;48.736;9.092;2023-02-11T15:15:33;15.00;;;8.13;;
8913;SDS011;4492;48.736;9.092;2023-02-11T15:18:01;14.03;;;8.10;;
8913;SDS011;4492;48.736;9.092;2023-02-11T15:20:28;10.50;;;7.70;;
8913;SDS011;4492;48.736;9.092;2023-02-11T15:22:58;14.03;;;8.37;;
8913;SDS011;4492;48.736;9.092;2023-02-11T15:25:25;11.43;;;7.67;;
8913;SDS011;4492;48.736;9.092;2023-02-11T15:27:53;14.77;;;7.80;;
8913;SDS011;4492;48.736;9.092;2023-02-11T15:32:47;13.83;;;8.90;;
8913;SDS011;4492;48.736;9.092;2023-02-11T15:35:23;16.97;;;9.63;;
8913;SDS011;4492;48.736;9.092;2023-02-11T15:37:54;18.40;;;10.80;;
8913;SDS011;4492;48.736;9.092;2023-02-11T15:40:22;18.03;;;10.53;;
8913;SDS011;4492;48.736;9.092;2023-02-11T15:45:44;18.87;;;10.17;;
8913;SDS011;4492;48.736;9.092;2023-02-11T15:48:32;22.57;;;10.93;;
8913;SDS011;4492;48.736;9.092;2023-02-11T15:51:02;18.50;;;10.87;;
8913;SDS011;4492;48.736;9.092;2023-02-11T15:53:40;20.60;;;10.40;;
8913;SDS011;4492;48.736;9.092;2023-02-11T15:56:15;17.10;;;10.83;;
8913;SDS011;4492;48.736;9.092;2023-02-11T15:58:48;16.47;;;11.30;;
8913;SDS011;4492;48.736;9.092;2023-02-11T16:01:15;21.97;;;11.80;;
8913;SDS011;4492;48.736;9.092;2023-02-11T16:03:41;19.20;;;11.23;;
8913;SDS011;4492;48.736;9.092;2023-02-11T16:06:28;23.27;;;12.43;;
8913;SDS011;4492;48.736;9.092;2023-02-11T16:11:31;16.43;;;11.30;;
8913;SDS011;4492;48.736;9.092;2023-02-11T16:13:58;21.30;;;12.00;;
8913;SDS011;4492;48.736;9.092;2023-02-11T16:16:26;18.90;;;11.73;;
8913;SDS011;4492;48.736;9.092;2023-02-11T16:19:00;23.07;;;12.40;;
8913;SDS011;4492;48.736;9.092;2023-02-11T16:21:28;22.80;;;12.20;;
8913;SDS011;4492;48.736;9.092;2023-02-11T16:23:58;23.63;;;12.40;;
8913;SDS011;4492;48.736;9.092;2023-02-11T16:29:04;24.07;;;13.00;;
8913;SDS011;4492;48.736;9.092;2023-02-11T16:31:32;22.47;;;12.70;;
8913;SDS011;4492;48.736;9.092;2023-02-11T16:33:59;20.50;;;12.07;;
8913;SDS011;4492;48.736;9.092;2023-02-11T16:36:24;20.83;;;12.37;;
8913;SDS011;4492;48.736;9.092;2023-02-11T16:38:50;20.17;;;12.27;;
8913;SDS011;4492;48.736;9.092;2023-02-11T16:41:15;21.50;;;12.53;;
8913;SDS011;4492;48.736;9.092;2023-02-11T16:43:41;21.57;;;11.53;;
8913;SDS011;4492;48.736;9.092;2023-02-11T16:46:06;24.37;;;12.97;;
8913;SDS011;4492;48.736;9.092;2023-02-11T16:48:33;20.80;;;12.30;;
8913;SDS011;4492;48.736;9.092;2023-02-11T16:50:58;24.60;;;13.27;;
8913;SDS011;4492;48.736;9.092;2023-02-11T16:53:24;22.40;;;12.93;;
8913;SDS011;4492;48.736;9.092;2023-02-11T16:55:51;22.23;;;13.10;;
8913;SDS011;4492;48.736;9.092;2023-02-11T16:58:17;25.37;;;13.37;;
8913;SDS011;4492;48.736;9.092;2023-02-11T17:00:43;22.60;;;11.87;;
8913;SDS011;4492;48.736;9.092;2023-02-11T17:03:15;25.80;;;13.93;;
8913;SDS011;4492;48.736;9.092;2023-02-11T17:05:46;23.20;;;12.63;;
8913;SDS011;4492;48.736;9.092;2023-02-11T17:08:11;19.50;;;12.50;;
8913;SDS011;4492;48.736;9.092;2023-02-11T17:10:37;22.10;;;13.03;;
8913;SDS011;4492;48.736;9.092;2023-02-11T17:13:03;19.93;;;12.80;;
8913;SDS011;4492;48.736;9.092;2023-02-11T17:15:29;19.07;;;12.07;;
8913;SDS011;4492;48.736;9.092;2023-02-11T17:17:55;18.17;;;12.03;;
8913;SDS011;4492;48.736;9.092;2023-02-11T17:20:21;26.33;;;13.17;;
8913;SDS011;4492;48.736;9.092;2023-02-11T17:22:47;22.47;;;12.77;;
8913;SDS011;4492;48.736;9.092;2023-02-11T17:25:13;21.97;;;12.93;;
8913;SDS011;4492;48.736;9.092;2023-02-11T17:27:39;26.30;;;14.33;;
8913;SDS011;4492;48.736;9.092;2023-02-11T17:30:04;25.97;;;13.13;;
8913;SDS011;4492;48.736;9.092;2023-02-11T17:32:31;21.97;;;13.07;;
8913;SDS011;4492;48.736;9.092;2023-02-11T17:34:56;21.70;;;13.20;;